Time;durP1;ratioP1;P1;durP2;ratioP2;P2;SDS_P1;SDS_P2;PMS_P1;PMS_P2;Temp;Humidity;BMP_temperature;BMP_pressure;BME280_temperature;BME280_humidity;BME280_pressure;Samples;Min_cycle;Max_cycle;Signal;HPM_P1;HPM_P2
2023/11/11 00:01:18;;;;;;;;;;;;;;;;;;5057890;28;5021;-73
2023/11/11 00:04:04;;;;;;;;;;;;;;;;;;5052551;28;5055;-73
2023/11/11 00:06:30;;;;;;;;;;;;;;;;;;5060799;28;4464;-73
2023/11/11 00:08:56;;;;;;;;;;;;;;;;;;5053001;28;1914;-72
2023/11/11 00:11:23;;;;;;;;;;;;;;;;;;5042817;28;4668;-70
2023/11/11 00:13:51;;;;;;;;;;;;;;;;;;5052459;28;5055;-72
2023/11/11 00:16:16;;;;;;;;;;;;;;;;;;5050577;28;5093;-71
2023/11/11 00:18:41;;;;;;;;;;;;;;;;;;5057853;28;4564;-72
2023/11/11 00:21:07;;;;;;;;;;;;;;;;;;5055237;28;4651;-72
2023/11/11 00:23:32;;;;;;;;;;;;;;;;;;5058151;28;982;-71
2023/11/11 00:25:57;;;;;;;;;;;;;;;;;;5053168;28;5009;-72
2023/11/11 00:28:23;;;;;;;;;;;;;;;;;;5055711;28;5020;-71
2023/11/11 00:34:09;;;;;;;;;;;;;;;;;;5057440;28;4648;-73
2023/11/11 00:36:39;;;;;;;;;;;;;;;;;;5053413;28;4872;-72
2023/11/11 00:39:06;;;;;;;;;;;;;;;;;;5056387;28;4968;-72
2023/11/11 00:41:31;;;;;;;;;;;;;;;;;;5051130;28;1070;-72
2023/11/11 00:43:57;;;;;;;;;;;;;;;;;;5056077;28;4885;-72
2023/11/11 00:46:22;;;;;;;;;;;;;;;;;;5055425;28;5002;-72
2023/11/11 00:48:47;;;;;;;;;;;;;;;;;;5056190;28;4548;-71
2023/11/11 00:51:13;;;;;;;;;;;;;;;;;;5059884;28;5161;-70
2023/11/11 00:53:38;;;;;;;;;;;;;;;;;;5052445;28;1144;-71
2023/11/11 00:56:04;;;;;;;;;;;;;;;;;;5053620;28;4943;-71
2023/11/11 00:58:30;;;;;;;;;;;;;;;;;;5053386;28;5052;-72
2023/11/11 01:00:55;;;;;;;;;;;;;;;;;;5058265;28;4950;-73
2023/11/11 01:03:21;;;;;;;;;;;;;;;;;;5038556;28;5132;-73
2023/11/11 01:05:46;;;;;;;;;;;;;;;;;;5057147;28;1223;-73
2023/11/11 01:08:12;;;;;;;;;;;;;;;;;;5068348;28;5027;-71
2023/11/11 01:10:38;;;;;;;;;;;;;;;;;;5065580;28;5579;-71
2023/11/11 01:13:03;;;;;;;;;;;;;;;;;;5052943;28;4438;-72
2023/11/11 01:15:29;;;;;;;;;;;;;;;;;;5059731;28;4605;-72
2023/11/11 01:17:55;;;;;;;;;;;;;;;;;;5033555;28;1853;-73
2023/11/11 01:20:20;;;;;;;;;;;;;;;;;;5045604;28;4413;-73
2023/11/11 01:22:46;;;;;;;;;;;;;;;;;;5049992;28;5055;-73
2023/11/11 01:25:12;;;;;;;;;;;;;;;;;;5033092;28;5060;-73
2023/11/11 01:27:37;;;;;;;;;;;;;;;;;;5066819;28;4873;-73
2023/11/11 01:30:05;;;;;;;;;;;;;;;;;;5049910;28;5124;-74
2023/11/11 01:32:30;;;;;;;;;;;;;;;;;;5049200;28;1137;-74
2023/11/11 01:35:02;;;;;;;;;;;;;;;;;;5050272;28;4872;-74
2023/11/11 01:37:27;;;;;;;;;;;;;;;;;;5050996;28;4773;-75
2023/11/11 01:39:53;;;;;;;;;;;;;;;;;;5046803;28;4472;-72
2023/11/11 01:42:18;;;;;;;;;;;;;;;;;;5050580;28;5948;-72
2023/11/11 01:44:50;;;;;;;;;;;;;;;;;;5052985;28;973;-73
2023/11/11 01:47:16;;;;;;;;;;;;;;;;;;5068194;28;4941;-72
2023/11/11 01:49:41;;;;;;;;;;;;;;;;;;5023130;28;4885;-73
2023/11/11 01:52:07;;;;;;;;;;;;;;;;;;5039020;28;4984;-73
2023/11/11 01:54:32;;;;;;;;;;;;;;;;;;5058399;28;5067;-71
2023/11/11 01:56:57;;;;;;;;;;;;;;;;;;5043067;28;1270;-73
2023/11/11 01:59:27;;;;;;;;;;;;;;;;;;5043093;28;4918;-71
2023/11/11 02:01:53;;;;;;;;;;;;;;;;;;5017205;28;5038;-73
2023/11/11 02:04:19;;;;;;;;;;;;;;;;;;5030664;28;5087;-73
2023/11/11 02:06:45;;;;;;;;;;;;;;;;;;5030013;28;5186;-72
2023/11/11 02:09:10;;;;;;;;;;;;;;;;;;5020655;28;4510;-66
2023/11/11 02:11:51;;;;;;;;;;;;;;;;;;5032161;28;1275;-71
2023/11/11 02:14:17;;;;;;;;;;;;;;;;;;5032064;28;5018;-71
2023/11/11 02:17:12;;;;;;;;;;;;;;;;;;5014384;28;5100;-72
2023/11/11 02:28:48;;;;;;;;;;;;;;;;;;5035051;28;4509;-73
2023/11/11 02:34:23;;;;;;;;;;;;;;;;;;5031955;28;5164;-73
2023/11/11 02:36:58;;;;;;;;;;;;;;;;;;5018153;28;4966;-72
2023/11/11 02:39:23;;;;;;;;;;;;;;;;;;5049892;28;5027;-72
2023/11/11 02:41:48;;;;;;;;;;;;;;;;;;5045387;28;1085;-73
2023/11/11 02:44:15;;;;;;;;;;;;;;;;;;5033034;28;5765;-72
2023/11/11 02:46:42;;;;;;;;;;;;;;;;;;5047393;28;4420;-71
2023/11/11 02:49:08;;;;;;;;;;;;;;;;;;5032746;28;5058;-72
2023/11/11 02:51:34;;;;;;;;;;;;;;;;;;5044734;28;4969;-73
2023/11/11 02:53:59;;;;;;;;;;;;;;;;;;5038043;28;5084;-67
2023/11/11 02:56:25;;;;;;;;;;;;;;;;;;5031027;28;1077;-75
2023/11/11 02:58:57;;;;;;;;;;;;;;;;;;5061837;28;5046;-75
2023/11/11 03:01:23;;;;;;;;;;;;;;;;;;5058841;28;5121;-73
2023/11/11 03:03:49;;;;;;;;;;;;;;;;;;5049391;28;4923;-70
2023/11/11 03:06:14;;;;;;;;;;;;;;;;;;5059671;28;5313;-70
2023/11/11 03:08:40;;;;;;;;;;;;;;;;;;5048320;28;1252;-72
2023/11/11 03:11:05;;;;;;;;;;;;;;;;;;5051015;28;4611;-73
2023/11/11 03:13:31;;;;;;;;;;;;;;;;;;5054290;28;4961;-74
2023/11/11 03:15:56;;;;;;;;;;;;;;;;;;5051922;28;4992;-73
2023/11/11 03:21:25;;;;;;;;;;;;;;;;;;5060477;28;5149;-72
2023/11/11 03:24:26;;;;;;;;;;;;;;;;;;5053931;28;960;-74
2023/11/11 03:26:57;;;;;;;;;;;;;;;;;;5053148;28;4616;-74
2023/11/11 03:29:23;;;;;;;;;;;;;;;;;;5051539;28;5109;-75
2023/11/11 03:31:48;;;;;;;;;;;;;;;;;;5066512;28;5019;-75
2023/11/11 03:34:13;;;;;;;;;;;;;;;;;;5047019;28;5116;-73
2023/11/11 03:36:38;;;;;;;;;;;;;;;;;;5052022;28;4442;-75
2023/11/11 03:39:04;;;;;;;;;;;;;;;;;;5049561;28;5189;-66
2023/11/11 03:41:29;;;;;;;;;;;;;;;;;;5054475;28;1192;-74
2023/11/11 03:43:54;;;;;;;;;;;;;;;;;;5072248;28;5011;-72
2023/11/11 03:46:20;;;;;;;;;;;;;;;;;;5075311;28;5512;-73
2023/11/11 03:48:45;;;;;;;;;;;;;;;;;;5074162;28;5095;-72
2023/11/11 03:51:11;;;;;;;;;;;;;;;;;;5074206;28;5238;-72
2023/11/11 03:53:36;;;;;;;;;;;;;;;;;;5072108;28;1167;-74
2023/11/11 03:56:04;;;;;;;;;;;;;;;;;;5052764;28;4591;-73
2023/11/11 03:58:36;;;;;;;;;;;;;;;;;;5060859;28;4607;-73
2023/11/11 04:04:18;;;;;;;;;;;;;;;;;;5053713;28;5066;-72
2023/11/11 04:09:43;;;;;;;;;;;;;;;;;;5053443;28;5073;-72
2023/11/11 04:12:15;;;;;;;;;;;;;;;;;;5053602;28;4845;-72
2023/11/11 04:21:04;;;;;;;;;;;;;;;;;;5063019;28;4691;-75
2023/11/11 04:26:33;;;;;;;;;;;;;;;;;;5051941;28;4727;-72
2023/11/11 04:28:59;;;;;;;;;;;;;;;;;;5050984;28;4965;-66
2023/11/11 04:31:27;;;;;;;;;;;;;;;;;;5050011;28;4677;-73
2023/11/11 04:33:52;;;;;;;;;;;;;;;;;;5037568;28;4492;-73
2023/11/11 04:36:18;;;;;;;;;;;;;;;;;;5051128;28;4972;-73
2023/11/11 04:38:44;;;;;;;;;;;;;;;;;;5061028;28;1173;-73
2023/11/11 04:41:11;;;;;;;;;;;;;;;;;;5056054;28;5076;-74
2023/11/11 04:43:36;;;;;;;;;;;;;;;;;;5075649;28;4851;-74
2023/11/11 04:46:02;;;;;;;;;;;;;;;;;;5071671;28;5062;-73
2023/11/11 04:48:28;;;;;;;;;;;;;;;;;;5089621;28;4633;-74
2023/11/11 04:50:53;;;;;;;;;;;;;;;;;;5078564;28;1914;-73
2023/11/11 04:56:46;;;;;;;;;;;;;;;;;;5076810;28;5383;-73
2023/11/11 04:59:13;;;;;;;;;;;;;;;;;;5035780;28;4896;-74
2023/11/11 05:04:41;;;;;;;;;;;;;;;;;;5052936;28;5019;-71
2023/11/11 05:10:33;;;;;;;;;;;;;;;;;;5050719;28;5020;-73
2023/11/11 05:12:59;;;;;;;;;;;;;;;;;;5047143;28;4427;-73
2023/11/11 05:15:25;;;;;;;;;;;;;;;;;;5047607;28;5101;-73
2023/11/11 05:17:50;;;;;;;;;;;;;;;;;;5048457;28;1411;-73
2023/11/11 05:20:17;;;;;;;;;;;;;;;;;;5046840;28;4472;-70
2023/11/11 05:22:42;;;;;;;;;;;;;;;;;;5048375;28;5015;-72
2023/11/11 05:25:10;;;;;;;;;;;;;;;;;;5029537;28;5280;-73
2023/11/11 05:27:35;;;;;;;;;;;;;;;;;;5040237;28;4914;-73
2023/11/11 05:30:00;;;;;;;;;;;;;;;;;;5053385;28;5014;-73
2023/11/11 05:32:26;;;;;;;;;;;;;;;;;;5051369;28;1097;-72
2023/11/11 05:34:52;;;;;;;;;;;;;;;;;;5052389;28;4953;-72
2023/11/11 05:37:29;;;;;;;;;;;;;;;;;;5055981;28;4454;-73
2023/11/11 05:39:54;;;;;;;;;;;;;;;;;;5053027;28;5055;-68
2023/11/11 05:42:19;;;;;;;;;;;;;;;;;;5058743;28;4905;-68
2023/11/11 05:44:44;;;;;;;;;;;;;;;;;;5073935;28;990;-72
2023/11/11 05:47:10;;;;;;;;;;;;;;;;;;5060410;28;5092;-72
2023/11/11 05:49:35;;;;;;;;;;;;;;;;;;5052225;28;4615;-73
2023/11/11 05:52:01;;;;;;;;;;;;;;;;;;5051484;28;4972;-72
2023/11/11 05:54:26;;;;;;;;;;;;;;;;;;5050425;28;5112;-73
2023/11/11 05:56:55;;;;;;;;;;;;;;;;;;5032169;28;997;-74
2023/11/11 05:59:20;;;;;;;;;;;;;;;;;;5053217;28;5289;-73
2023/11/11 06:01:46;;;;;;;;;;;;;;;;;;5038448;28;5033;-73
2023/11/11 06:04:11;;;;;;;;;;;;;;;;;;5050421;28;4593;-73
2023/11/11 06:06:42;;;;;;;;;;;;;;;;;;5049902;28;4836;-73
2023/11/11 06:09:11;;;;;;;;;;;;;;;;;;5052092;28;4623;-73
2023/11/11 06:11:46;;;;;;;;;;;;;;;;;;5050807;28;1156;-72
2023/11/11 06:14:12;;;;;;;;;;;;;;;;;;5058940;28;5888;-73
2023/11/11 06:16:38;;;;;;;;;;;;;;;;;;5053667;28;5102;-73
2023/11/11 06:19:03;;;;;;;;;;;;;;;;;;5050004;28;4980;-74
2023/11/11 06:21:29;;;;;;;;;;;;;;;;;;5062237;28;4985;-72
2023/11/11 06:23:55;;;;;;;;;;;;;;;;;;5051331;28;1121;-73
2023/11/11 06:26:20;;;;;;;;;;;;;;;;;;5047983;28;4594;-72
2023/11/11 06:31:52;;;;;;;;;;;;;;;;;;5074348;28;5112;-73
2023/11/11 06:34:19;;;;;;;;;;;;;;;;;;5034709;28;5131;-72
2023/11/11 06:36:44;;;;;;;;;;;;;;;;;;5034756;28;5141;-73
2023/11/11 06:39:11;;;;;;;;;;;;;;;;;;5052398;28;4827;-71
2023/11/11 06:44:39;;;;;;;;;;;;;;;;;;5055191;28;4590;-72
2023/11/11 06:47:05;;;;;;;;;;;;;;;;;;5053718;28;4941;-74
2023/11/11 06:49:30;;;;;;;;;;;;;;;;;;5054059;28;4548;-73
2023/11/11 06:51:55;;;;;;;;;;;;;;;;;;5054066;28;4868;-73
2023/11/11 06:57:23;;;;;;;;;;;;;;;;;;5052732;28;5923;-74
2023/11/11 06:59:49;;;;;;;;;;;;;;;;;;5054503;28;1116;-73
2023/11/11 07:02:15;;;;;;;;;;;;;;;;;;5035554;28;5018;-72
2023/11/11 07:10:46;;;;;;;;;;;;;;;;;;5074028;28;5058;-72
2023/11/11 07:13:12;;;;;;;;;;;;;;;;;;5079425;28;4779;-72
2023/11/11 07:15:37;;;;;;;;;;;;;;;;;;5080512;28;4967;-72
2023/11/11 07:18:07;;;;;;;;;;;;;;;;;;5080459;28;4413;-71
2023/11/11 07:23:34;;;;;;;;;;;;;;;;;;5081212;28;4728;-72
2023/11/11 07:26:00;;;;;;;;;;;;;;;;;;5080414;28;5079;-72
2023/11/11 07:28:27;;;;;;;;;;;;;;;;;;5080353;28;4384;-72
2023/11/11 07:30:52;;;;;;;;;;;;;;;;;;5079845;28;5216;-73
2023/11/11 07:42:25;;;;;;;;;;;;;;;;;;5080335;28;4520;-72
2023/11/11 07:44:52;;;;;;;;;;;;;;;;;;5080509;28;1210;-59
2023/11/11 07:47:18;;;;;;;;;;;;;;;;;;5079883;28;4855;-59
2023/11/11 07:52:46;;;;;;;;;;;;;;;;;;5080148;28;5091;-58
2023/11/11 07:55:21;;;;;;;;;;;;;;;;;;5078317;28;4594;-59
2023/11/11 08:04:45;;;;;;;;;;;;;;;;;;5079935;28;5066;-58
2023/11/11 08:07:13;;;;;;;;;;;;;;;;;;5079997;28;4944;-59
2023/11/11 08:12:41;;;;;;;;;;;;;;;;;;5079993;28;5934;-59
2023/11/11 08:18:09;;;;;;;;;;;;;;;;;;5079976;28;4423;-59
2023/11/11 08:23:37;;;;;;;;;;;;;;;;;;5078486;28;4523;-60
2023/11/11 08:26:02;;;;;;;;;;;;;;;;;;5058301;28;4445;-58
2023/11/11 08:28:28;;;;;;;;;;;;;;;;;;5076512;28;4795;-58
2023/11/11 08:30:53;;;;;;;;;;;;;;;;;;5076068;28;5171;-58
2023/11/11 08:33:18;;;;;;;;;;;;;;;;;;5058031;28;5069;-58
2023/11/11 08:35:44;;;;;;;;;;;;;;;;;;5076838;28;1075;-62
2023/11/11 08:38:10;;;;;;;;;;;;;;;;;;5069534;28;5201;-59
2023/11/11 08:40:36;;;;;;;;;;;;;;;;;;5038735;28;4591;-58
2023/11/11 08:43:01;;;;;;;;;;;;;;;;;;5038429;28;4691;-60
2023/11/11 08:48:31;;;;;;;;;;;;;;;;;;5056188;28;4661;-59
2023/11/11 08:54:00;;;;;;;;;;;;;;;;;;5076193;28;4927;-59
2023/11/11 08:56:26;;;;;;;;;;;;;;;;;;5058015;28;2029;-59
2023/11/11 08:58:52;;;;;;;;;;;;;;;;;;5075662;28;4576;-59
2023/11/11 09:01:17;;;;;;;;;;;;;;;;;;5076042;28;5086;-59
2023/11/11 09:03:42;;;;;;;;;;;;;;;;;;5075436;28;4651;-59
2023/11/11 09:06:09;;;;;;;;;;;;;;;;;;5075606;28;5050;-59
2023/11/11 09:08:35;;;;;;;;;;;;;;;;;;5076300;28;1084;-59
2023/11/11 09:11:00;;;;;;;;;;;;;;;;;;5075906;28;4949;-59
2023/11/11 09:16:28;;;;;;;;;;;;;;;;;;5075843;28;4442;-59
2023/11/11 09:21:56;;;;;;;;;;;;;;;;;;5076000;28;5034;-59
2023/11/11 09:24:21;;;;;;;;;;;;;;;;;;5075062;28;4625;-59
2023/11/11 09:26:47;;;;;;;;;;;;;;;;;;5063976;28;1197;-59
2023/11/11 09:29:15;;;;;;;;;;;;;;;;;;5053728;28;4971;-59
2023/11/11 09:34:44;;;;;;;;;;;;;;;;;;5055116;28;4464;-59
2023/11/11 09:37:09;;;;;;;;;;;;;;;;;;5054803;28;4614;-59
2023/11/11 09:39:34;;;;;;;;;;;;;;;;;;5037573;28;5096;-59
2023/11/11 09:41:59;;;;;;;;;;;;;;;;;;5055148;28;4738;-58
2023/11/11 09:44:25;;;;;;;;;;;;;;;;;;5070691;28;1455;-59
2023/11/11 09:47:15;;;;;;;;;;;;;;;;;;5074761;28;4983;-59
2023/11/11 09:49:41;;;;;;;;;;;;;;;;;;5056686;28;4450;-59
2023/11/11 09:55:09;;;;;;;;;;;;;;;;;;5074874;28;5093;-59
2023/11/11 10:00:38;;;;;;;;;;;;;;;;;;5074865;28;4990;-59
2023/11/11 10:03:03;;;;;;;;;;;;;;;;;;5055343;28;5042;-59
2023/11/11 10:05:29;;;;;;;;;;;;;;;;;;5075116;28;998;-59
2023/11/11 10:07:55;;;;;;;;;;;;;;;;;;5074353;28;5048;-59
2023/11/11 10:13:23;;;;;;;;;;;;;;;;;;5075011;28;5729;-59
2023/11/11 10:15:49;;;;;;;;;;;;;;;;;;5055972;28;4829;-59
2023/11/11 10:18:14;;;;;;;;;;;;;;;;;;5074057;28;5019;-59
2023/11/11 10:20:46;;;;;;;;;;;;;;;;;;5074815;28;1244;-58
2023/11/11 10:32:19;;;;;;;;;;;;;;;;;;5060223;28;4441;-59
2023/11/11 10:37:48;;;;;;;;;;;;;;;;;;5054400;28;4436;-59
2023/11/11 10:43:16;;;;;;;;;;;;;;;;;;5053976;28;5736;-60
2023/11/11 10:45:41;;;;;;;;;;;;;;;;;;5053643;28;4623;-60
2023/11/11 10:48:07;;;;;;;;;;;;;;;;;;5035238;28;5009;-60
2023/11/11 10:50:33;;;;;;;;;;;;;;;;;;5054094;28;1910;-59
2023/11/11 10:56:01;;;;;;;;;;;;;;;;;;5054704;28;4454;-59
2023/11/11 11:01:30;;;;;;;;;;;;;;;;;;5054539;28;5207;-58
2023/11/11 11:07:04;;;;;;;;;;;;;;;;;;5053665;28;5010;-58
2023/11/11 11:09:38;;;;;;;;;;;;;;;;;;5035881;28;4994;-58
2023/11/11 11:12:15;;;;;;;;;;;;;;;;;;5053648;28;4573;-58
2023/11/11 11:17:47;;;;;;;;;;;;;;;;;;5054447;28;4545;-58
2023/11/11 11:20:14;;;;;;;;;;;;;;;;;;5053450;28;4999;-58
2023/11/11 11:22:43;;;;;;;;;;;;;;;;;;5053536;28;4582;-58
2023/11/11 11:25:27;;;;;;;;;;;;;;;;;;5035354;28;4464;-58
2023/11/11 11:28:08;;;;;;;;;;;;;;;;;;5052992;28;5015;-58
2023/11/11 11:36:59;;;;;;;;;;;;;;;;;;5053393;28;4887;-58
2023/11/11 11:42:29;;;;;;;;;;;;;;;;;;5053268;28;5136;-59
2023/11/11 11:44:55;;;;;;;;;;;;;;;;;;5059282;28;2697;-60
2023/11/11 11:47:24;;;;;;;;;;;;;;;;;;5053240;28;4433;-59
2023/11/11 11:49:49;;;;;;;;;;;;;;;;;;5053492;28;4891;-59
2023/11/11 11:58:58;;;;;;;;;;;;;;;;;;5073368;28;5086;-59
2023/11/11 12:01:25;;;;;;;;;;;;;;;;;;5075556;28;4839;-59
2023/11/11 12:03:51;;;;;;;;;;;;;;;;;;5076336;28;4968;-59
2023/11/11 12:06:16;;;;;;;;;;;;;;;;;;5072309;28;5013;-59
2023/11/11 12:08:55;;;;;;;;;;;;;;;;;;5059480;28;956;-59
2023/11/11 12:11:30;;;;;;;;;;;;;;;;;;5056516;28;4601;-58
2023/11/11 12:17:20;;;;;;;;;;;;;;;;;;5048670;28;4924;-61
2023/11/11 12:19:48;;;;;;;;;;;;;;;;;;5048052;28;4465;-60
2023/11/11 12:22:14;;;;;;;;;;;;;;;;;;5035601;28;4816;-60
2023/11/11 12:24:40;;;;;;;;;;;;;;;;;;5054736;28;5131;-59
2023/11/11 12:27:07;;;;;;;;;;;;;;;;;;5037332;28;5170;-60
2023/11/11 12:29:40;;;;;;;;;;;;;;;;;;5049783;28;4728;-59
2023/11/11 12:32:05;;;;;;;;;;;;;;;;;;5059762;28;4851;-59
2023/11/11 12:34:44;;;;;;;;;;;;;;;;;;5065913;28;4931;-59
2023/11/11 12:40:17;;;;;;;;;;;;;;;;;;5058713;28;5342;-46
2023/11/11 12:42:42;;;;;;;;;;;;;;;;;;5055576;28;4732;-47
2023/11/11 12:45:07;;;;;;;;;;;;;;;;;;5054628;28;5005;-47
2023/11/11 12:50:52;;;;;;;;;;;;;;;;;;5060714;28;4668;-47
2023/11/11 12:53:25;;;;;;;;;;;;;;;;;;5032752;28;4981;-49
2023/11/11 12:56:11;;;;;;;;;;;;;;;;;;5049343;28;5140;-46
2023/11/11 12:58:36;;;;;;;;;;;;;;;;;;5048725;28;4549;-53
2023/11/11 13:01:04;;;;;;;;;;;;;;;;;;5053117;28;5041;-50
2023/11/11 13:03:29;;;;;;;;;;;;;;;;;;5050615;28;4920;-49
2023/11/11 13:06:03;;;;;;;;;;;;;;;;;;5052896;28;3269;-50
2023/11/11 13:08:28;;;;;;;;;;;;;;;;;;5045008;28;5066;-51
2023/11/11 13:10:59;;;;;;;;;;;;;;;;;;5056083;28;4696;-48
2023/11/11 13:13:25;;;;;;;;;;;;;;;;;;5051031;28;4568;-48
2023/11/11 13:15:54;;;;;;;;;;;;;;;;;;5037049;28;5022;-48
2023/11/11 13:18:20;;;;;;;;;;;;;;;;;;5032013;28;5085;-48
2023/11/11 13:20:50;;;;;;;;;;;;;;;;;;5053008;28;2778;-49
2023/11/11 13:23:17;;;;;;;;;;;;;;;;;;5053142;28;4945;-47
2023/11/11 13:28:47;;;;;;;;;;;;;;;;;;5075744;28;4610;-48
2023/11/11 13:31:20;;;;;;;;;;;;;;;;;;5071446;28;5013;-49
2023/11/11 13:33:48;;;;;;;;;;;;;;;;;;5052595;28;5133;-50
2023/11/11 13:36:17;;;;;;;;;;;;;;;;;;5053948;28;5496;-52
2023/11/11 13:38:43;;;;;;;;;;;;;;;;;;5041726;28;1142;-48
2023/11/11 13:41:36;;;;;;;;;;;;;;;;;;5051301;28;4820;-49
2023/11/11 13:49:54;;;;;;;;;;;;;;;;;;5049913;28;4941;-49
2023/11/11 13:52:20;;;;;;;;;;;;;;;;;;5051894;28;4468;-49
2023/11/11 13:54:45;;;;;;;;;;;;;;;;;;5048204;28;5050;-49
2023/11/11 14:03:10;;;;;;;;;;;;;;;;;;5023858;28;4537;-47
2023/11/11 14:05:41;;;;;;;;;;;;;;;;;;5052723;28;1272;-48
2023/11/11 14:08:07;;;;;;;;;;;;;;;;;;5052814;28;5109;-48
2023/11/11 14:10:35;;;;;;;;;;;;;;;;;;5062464;28;4906;-51
2023/11/11 14:13:00;;;;;;;;;;;;;;;;;;5050137;28;4992;-48
2023/11/11 14:16:00;;;;;;;;;;;;;;;;;;5052083;28;5052;-48
2023/11/11 14:18:51;;;;;;;;;;;;;;;;;;5048056;28;4900;-49
2023/11/11 14:21:17;;;;;;;;;;;;;;;;;;5052779;28;4636;-49
2023/11/11 14:23:42;;;;;;;;;;;;;;;;;;5047784;28;1022;-50
2023/11/11 14:26:08;;;;;;;;;;;;;;;;;;5051134;28;4942;-51
2023/11/11 14:28:34;;;;;;;;;;;;;;;;;;5039801;28;4687;-47
2023/11/11 14:31:00;;;;;;;;;;;;;;;;;;5033703;28;4893;-48
2023/11/11 14:33:25;;;;;;;;;;;;;;;;;;5053978;28;4914;-49
2023/11/11 14:35:50;;;;;;;;;;;;;;;;;;5051059;28;1298;-48
2023/11/11 14:38:17;;;;;;;;;;;;;;;;;;5058873;28;4934;-50
2023/11/11 14:40:44;;;;;;;;;;;;;;;;;;5051929;28;5017;-49
2023/11/11 14:43:09;;;;;;;;;;;;;;;;;;5037235;28;4986;-48
2023/11/11 14:46:08;;;;;;;;;;;;;;;;;;5051134;28;4414;-48
2023/11/11 14:48:34;;;;;;;;;;;;;;;;;;5053775;28;5062;-48
2023/11/11 14:50:59;;;;;;;;;;;;;;;;;;5034504;28;4571;-49
2023/11/11 14:53:25;;;;;;;;;;;;;;;;;;5047658;28;1084;-49
2023/11/11 14:56:14;;;;;;;;;;;;;;;;;;5047383;28;4477;-51
2023/11/11 14:58:40;;;;;;;;;;;;;;;;;;5052839;28;4631;-47
2023/11/11 15:01:05;;;;;;;;;;;;;;;;;;5051678;28;4632;-49
2023/11/11 15:03:31;;;;;;;;;;;;;;;;;;5051607;28;5004;-49
2023/11/11 15:05:57;;;;;;;;;;;;;;;;;;5050976;28;1127;-50
2023/11/11 15:08:23;;;;;;;;;;;;;;;;;;5052667;28;4902;-49
2023/11/11 15:10:48;;;;;;;;;;;;;;;;;;5050555;28;4838;-49
2023/11/11 15:13:13;;;;;;;;;;;;;;;;;;5050649;28;5217;-49
2023/11/11 15:15:39;;;;;;;;;;;;;;;;;;5047547;28;5056;-51
2023/11/11 15:18:05;;;;;;;;;;;;;;;;;;5051736;28;4665;-50
2023/11/11 15:20:31;;;;;;;;;;;;;;;;;;5056007;28;1055;-50
2023/11/11 15:23:09;;;;;;;;;;;;;;;;;;5073688;28;5069;-50
2023/11/11 15:25:36;;;;;;;;;;;;;;;;;;5053268;28;5139;-50
2023/11/11 15:28:01;;;;;;;;;;;;;;;;;;5034041;28;4492;-49
2023/11/11 15:30:36;;;;;;;;;;;;;;;;;;5060290;28;5156;-50
2023/11/11 15:33:02;;;;;;;;;;;;;;;;;;5053575;28;5535;-51
2023/11/11 15:35:27;;;;;;;;;;;;;;;;;;5056147;28;1200;-49
2023/11/11 15:37:55;;;;;;;;;;;;;;;;;;5051569;28;4491;-50
2023/11/11 15:40:20;;;;;;;;;;;;;;;;;;5043149;28;4596;-49
2023/11/11 15:42:46;;;;;;;;;;;;;;;;;;5058129;28;5040;-49
2023/11/11 15:45:13;;;;;;;;;;;;;;;;;;5054408;28;4484;-47
2023/11/11 15:47:39;;;;;;;;;;;;;;;;;;5056328;28;1020;-48
2023/11/11 15:50:07;;;;;;;;;;;;;;;;;;5054237;28;4596;-47
2023/11/11 15:52:32;;;;;;;;;;;;;;;;;;5054964;28;5327;-47
2023/11/11 15:54:58;;;;;;;;;;;;;;;;;;5052796;28;5499;-50
2023/11/11 15:57:23;;;;;;;;;;;;;;;;;;5055423;28;5182;-49
2023/11/11 15:59:48;;;;;;;;;;;;;;;;;;5055148;28;1032;-50
2023/11/11 16:02:13;;;;;;;;;;;;;;;;;;5053864;28;5219;-47
2023/11/11 16:04:39;;;;;;;;;;;;;;;;;;5054465;28;4843;-48
2023/11/11 16:07:04;;;;;;;;;;;;;;;;;;5055449;28;4981;-48
2023/11/11 16:09:29;;;;;;;;;;;;;;;;;;5039284;28;4489;-47
2023/11/11 16:11:56;;;;;;;;;;;;;;;;;;5056589;28;1977;-47
2023/11/11 16:14:22;;;;;;;;;;;;;;;;;;5043332;28;4505;-47
2023/11/11 16:16:47;;;;;;;;;;;;;;;;;;5069361;28;5344;-48
2023/11/11 16:22:39;;;;;;;;;;;;;;;;;;5053387;28;4768;-47
2023/11/11 16:25:10;;;;;;;;;;;;;;;;;;5052737;28;5226;-47
2023/11/11 16:27:36;;;;;;;;;;;;;;;;;;5054207;28;4573;-47
2023/11/11 16:39:09;;;;;;;;;;;;;;;;;;5058635;28;5064;-51
2023/11/11 16:50:44;;;;;;;;;;;;;;;;;;5056986;28;4592;-47
2023/11/11 16:53:09;;;;;;;;;;;;;;;;;;5056186;28;4870;-47
2023/11/11 16:55:34;;;;;;;;;;;;;;;;;;5054575;28;4613;-48
2023/11/11 16:57:59;;;;;;;;;;;;;;;;;;5060690;28;5122;-48
2023/11/11 17:03:31;;;;;;;;;;;;;;;;;;5053578;28;5354;-48
2023/11/11 17:05:57;;;;;;;;;;;;;;;;;;5056342;28;972;-48
2023/11/11 17:08:37;;;;;;;;;;;;;;;;;;5034473;28;4950;-49
2023/11/11 17:11:03;;;;;;;;;;;;;;;;;;5062217;28;4421;-47
2023/11/11 17:13:28;;;;;;;;;;;;;;;;;;5058335;28;4646;-47
2023/11/11 17:19:06;;;;;;;;;;;;;;;;;;5071383;28;5081;-47
2023/11/11 17:24:35;;;;;;;;;;;;;;;;;;5057306;28;5365;-48
2023/11/11 17:30:25;;;;;;;;;;;;;;;;;;5051585;28;4507;-49
2023/11/11 17:32:50;;;;;;;;;;;;;;;;;;5055849;28;1102;-49
2023/11/11 17:35:15;;;;;;;;;;;;;;;;;;5055816;28;4576;-47
2023/11/11 17:37:41;;;;;;;;;;;;;;;;;;5055395;28;4670;-47
2023/11/11 17:40:14;;;;;;;;;;;;;;;;;;5052586;28;5153;-48
2023/11/11 17:42:39;;;;;;;;;;;;;;;;;;5055092;28;4414;-48
2023/11/11 17:45:05;;;;;;;;;;;;;;;;;;5050645;28;4472;-47
2023/11/11 17:47:37;;;;;;;;;;;;;;;;;;5055057;28;970;-46
2023/11/11 17:50:03;;;;;;;;;;;;;;;;;;5032821;28;4979;-48
2023/11/11 17:52:28;;;;;;;;;;;;;;;;;;5053104;28;5086;-51
2023/11/11 17:54:53;;;;;;;;;;;;;;;;;;5047907;28;4670;-49
2023/11/11 17:57:19;;;;;;;;;;;;;;;;;;5048263;28;5040;-51
2023/11/11 17:59:44;;;;;;;;;;;;;;;;;;5052044;28;1291;-49
2023/11/11 18:02:09;;;;;;;;;;;;;;;;;;5032831;28;5647;-50
2023/11/11 18:04:35;;;;;;;;;;;;;;;;;;5050695;28;5037;-51
2023/11/11 18:07:00;;;;;;;;;;;;;;;;;;5049326;28;5272;-49
2023/11/11 18:09:26;;;;;;;;;;;;;;;;;;5060212;28;5013;-48
2023/11/11 18:15:09;;;;;;;;;;;;;;;;;;5059623;28;4669;-50
2023/11/11 18:17:34;;;;;;;;;;;;;;;;;;5046629;28;5107;-49
2023/11/11 18:19:59;;;;;;;;;;;;;;;;;;5065701;28;4847;-52
2023/11/11 18:22:25;;;;;;;;;;;;;;;;;;5068111;28;4943;-49
2023/11/11 18:24:51;;;;;;;;;;;;;;;;;;5052535;28;5224;-49
2023/11/11 18:27:16;;;;;;;;;;;;;;;;;;5049735;28;5059;-48
2023/11/11 18:29:42;;;;;;;;;;;;;;;;;;5033360;28;2350;-52
2023/11/11 18:38:38;;;;;;;;;;;;;;;;;;5050404;28;4585;-51
2023/11/11 18:41:11;;;;;;;;;;;;;;;;;;5052358;28;5013;-49
2023/11/11 18:43:44;;;;;;;;;;;;;;;;;;5053275;28;4500;-52
2023/11/11 18:46:15;;;;;;;;;;;;;;;;;;5051822;28;5239;-53
2023/11/11 18:48:41;;;;;;;;;;;;;;;;;;5047906;28;4474;-49
2023/11/11 18:51:10;;;;;;;;;;;;;;;;;;5053688;28;4589;-51
2023/11/11 18:53:35;;;;;;;;;;;;;;;;;;5057743;28;1006;-51
2023/11/11 18:56:00;;;;;;;;;;;;;;;;;;5037538;28;5066;-48
2023/11/11 19:01:56;;;;;;;;;;;;;;;;;;5050116;28;5075;-52
2023/11/11 19:04:22;;;;;;;;;;;;;;;;;;5050800;28;4868;-50
2023/11/11 19:06:47;;;;;;;;;;;;;;;;;;5050768;28;4985;-51
2023/11/11 19:09:18;;;;;;;;;;;;;;;;;;5053571;28;5090;-49
2023/11/11 19:17:48;;;;;;;;;;;;;;;;;;5052429;28;4753;-50
2023/11/11 19:26:19;;;;;;;;;;;;;;;;;;5053905;28;4604;-48
2023/11/11 19:28:44;;;;;;;;;;;;;;;;;;5050270;28;5064;-49
2023/11/11 19:31:10;;;;;;;;;;;;;;;;;;5053557;28;5225;-49
2023/11/11 19:33:35;;;;;;;;;;;;;;;;;;5051630;28;5025;-50
2023/11/11 19:36:01;;;;;;;;;;;;;;;;;;5052096;28;4894;-51
2023/11/11 19:38:26;;;;;;;;;;;;;;;;;;5060136;28;973;-49
2023/11/11 19:40:52;;;;;;;;;;;;;;;;;;5047605;28;5435;-51
2023/11/11 19:43:17;;;;;;;;;;;;;;;;;;5050422;28;4445;-49
2023/11/11 19:45:45;;;;;;;;;;;;;;;;;;5030594;28;5301;-49
2023/11/11 19:48:10;;;;;;;;;;;;;;;;;;5053209;28;4930;-49
2023/11/11 19:50:53;;;;;;;;;;;;;;;;;;5056731;28;2782;-49
2023/11/11 19:56:21;;;;;;;;;;;;;;;;;;5054077;28;4601;-50
2023/11/11 19:58:47;;;;;;;;;;;;;;;;;;5053432;28;4458;-49
2023/11/11 20:01:12;;;;;;;;;;;;;;;;;;5031666;28;4651;-49
2023/11/11 20:03:38;;;;;;;;;;;;;;;;;;5053057;28;4922;-47
2023/11/11 20:06:04;;;;;;;;;;;;;;;;;;5068871;28;5008;-48
2023/11/11 20:14:41;;;;;;;;;;;;;;;;;;5054172;28;4767;-59
2023/11/11 20:17:07;;;;;;;;;;;;;;;;;;5053251;28;5004;-60
2023/11/11 20:19:32;;;;;;;;;;;;;;;;;;5053577;28;4602;-60
2023/11/11 20:21:58;;;;;;;;;;;;;;;;;;5055877;28;4413;-69
2023/11/11 20:24:23;;;;;;;;;;;;;;;;;;5037769;28;5136;-68
2023/11/11 20:32:56;;;;;;;;;;;;;;;;;;5077363;28;4683;-68
2023/11/11 20:35:21;;;;;;;;;;;;;;;;;;5076490;28;4895;-69
2023/11/11 20:40:51;;;;;;;;;;;;;;;;;;5056507;28;4524;-69
2023/11/11 20:43:17;;;;;;;;;;;;;;;;;;5052111;28;4833;-68
2023/11/11 20:45:42;;;;;;;;;;;;;;;;;;5052028;28;4751;-69
2023/11/11 20:48:07;;;;;;;;;;;;;;;;;;5047914;28;5173;-69
2023/11/11 20:50:33;;;;;;;;;;;;;;;;;;5031536;28;2886;-68
2023/11/11 20:53:00;;;;;;;;;;;;;;;;;;5051762;28;4485;-69
2023/11/11 20:55:26;;;;;;;;;;;;;;;;;;5060981;28;5066;-70
2023/11/11 20:57:51;;;;;;;;;;;;;;;;;;5063262;28;5046;-70
2023/11/11 21:03:19;;;;;;;;;;;;;;;;;;5054608;28;5340;-72
2023/11/11 21:05:45;;;;;;;;;;;;;;;;;;5055001;28;1582;-71
2023/11/11 21:08:10;;;;;;;;;;;;;;;;;;5062410;28;4407;-72
2023/11/11 21:10:36;;;;;;;;;;;;;;;;;;5069252;28;4936;-72
2023/11/11 21:13:11;;;;;;;;;;;;;;;;;;5051786;28;4936;-71
2023/11/11 21:15:36;;;;;;;;;;;;;;;;;;5050571;28;4961;-69
2023/11/11 21:18:04;;;;;;;;;;;;;;;;;;5049528;28;5051;-70
2023/11/11 21:20:31;;;;;;;;;;;;;;;;;;5051359;28;3100;-71
2023/11/11 21:22:57;;;;;;;;;;;;;;;;;;5031027;28;5056;-70
2023/11/11 21:25:22;;;;;;;;;;;;;;;;;;5061494;28;4433;-71
2023/11/11 21:27:48;;;;;;;;;;;;;;;;;;5064728;28;5353;-72